Time;durP1;ratioP1;P1;durP2;ratioP2;P2;SDS_P1;SDS_P2;PMS_P1;PMS_P2;Temp;Humidity;BMP_temperature;BMP_pressure;BME280_temperature;BME280_humidity;BME280_pressure;Samples;Min_cycle;Max_cycle;Signal;HPM_P1;HPM_P2
2021/10/09 00:01:51;;;;;;;15.27;11.63;;;8.40;1.00;;;;;;5044791;28;20526;-85
2021/10/09 00:04:17;;;;;;;16.27;11.97;;;8.40;1.00;;;;;;5044600;28;20323;-85
2021/10/09 00:06:44;;;;;;;16.88;12.52;;;8.30;1.00;;;;;;5026889;28;20472;-85
2021/10/09 00:09:11;;;;;;;23.00;14.10;;;8.30;1.00;;;;;;5044688;28;20263;-86
2021/10/09 00:11:38;;;;;;;18.20;12.03;;;8.30;1.00;;;;;;5029883;28;20236;-86
2021/10/09 00:14:07;;;;;;;17.65;12.25;;;8.20;1.00;;;;;;5047856;28;20467;-86
2021/10/09 00:16:34;;;;;;;20.42;12.57;;;8.20;1.00;;;;;;5031186;28;20236;-85
2021/10/09 00:19:02;;;;;;;18.05;12.60;;;8.20;1.00;;;;;;5047357;28;20326;-84
2021/10/09 00:21:29;;;;;;;19.10;12.60;;;8.20;1.00;;;;;;5030389;28;20242;-86
2021/10/09 00:23:57;;;;;;;18.05;13.43;;;8.20;1.00;;;;;;5045813;28;20565;-85
2021/10/09 00:26:24;;;;;;;17.40;12.33;;;8.10;1.00;;;;;;5030318;28;20235;-85
2021/10/09 00:29:03;;;;;;;15.43;12.27;;;8.10;1.00;;;;;;5044092;28;20467;-85
2021/10/09 00:31:30;;;;;;;15.73;11.45;;;8.10;1.00;;;;;;5041378;28;20226;-86
2021/10/09 00:33:57;;;;;;;15.82;12.07;;;8.10;1.00;;;;;;5036518;28;20231;-86
2021/10/09 00:36:25;;;;;;;16.60;12.55;;;8.10;1.00;;;;;;5047484;28;20234;-86
2021/10/09 00:38:51;;;;;;;19.02;12.60;;;8.00;1.00;;;;;;5045221;28;20218;-84
2021/10/09 00:41:18;;;;;;;17.92;13.20;;;8.00;1.00;;;;;;5047637;28;20216;-85
2021/10/09 00:43:45;;;;;;;23.90;12.48;;;8.00;1.00;;;;;;5045883;28;20243;-85
2021/10/09 00:46:12;;;;;;;15.45;12.13;;;7.90;1.00;;;;;;5045364;28;20234;-85
2021/10/09 00:48:39;;;;;;;18.63;13.68;;;7.90;1.00;;;;;;5049972;28;20224;-85
2021/10/09 00:51:07;;;;;;;13.32;11.93;;;7.90;1.00;;;;;;5044678;28;21022;-85
2021/10/09 00:53:39;;;;;;;17.05;13.55;;;7.90;1.00;;;;;;5046594;28;20240;-85
2021/10/09 00:56:07;;;;;;;13.00;11.57;;;7.90;1.00;;;;;;5069358;28;20257;-86
2021/10/09 00:58:38;;;;;;;15.52;12.93;;;7.90;1.00;;;;;;5065506;28;20699;-86
2021/10/09 01:01:05;;;;;;;18.55;13.52;;;7.80;1.00;;;;;;5040690;28;20287;-85
2021/10/09 01:03:32;;;;;;;18.10;13.35;;;7.70;1.00;;;;;;5042080;28;20230;-85
2021/10/09 01:05:59;;;;;;;18.38;12.70;;;7.70;1.00;;;;;;5046029;28;20641;-85
2021/10/09 01:08:26;;;;;;;20.02;13.27;;;7.70;1.00;;;;;;5044031;28;20304;-86
2021/10/09 01:10:54;;;;;;;17.50;13.07;;;7.60;1.00;;;;;;5045928;28;21147;-85
2021/10/09 01:13:20;;;;;;;23.88;13.60;;;7.60;1.00;;;;;;5045517;28;20235;-86
2021/10/09 01:15:47;;;;;;;19.77;14.23;;;7.60;1.00;;;;;;5047654;28;20264;-84
2021/10/09 01:18:16;;;;;;;17.30;14.07;;;7.60;1.00;;;;;;5043225;28;20319;-85
2021/10/09 01:20:47;;;;;;;18.77;13.75;;;7.60;1.00;;;;;;5042435;28;20229;-85
2021/10/09 01:23:13;;;;;;;18.45;13.35;;;7.60;1.00;;;;;;5048085;28;20363;-85
2021/10/09 01:25:40;;;;;;;15.70;13.50;;;7.60;1.00;;;;;;5042736;28;20232;-85
2021/10/09 01:28:07;;;;;;;16.55;13.32;;;7.60;1.00;;;;;;5033809;28;20236;-85
2021/10/09 01:30:34;;;;;;;18.45;12.85;;;7.60;1.00;;;;;;5037543;28;20287;-85
2021/10/09 01:33:01;;;;;;;21.90;13.55;;;7.60;1.00;;;;;;5043460;28;20232;-85
2021/10/09 01:35:28;;;;;;;24.17;13.15;;;7.60;1.00;;;;;;5046840;28;20229;-85
2021/10/09 01:37:56;;;;;;;18.38;12.18;;;7.50;1.00;;;;;;5072471;28;20223;-85
2021/10/09 01:40:23;;;;;;;19.10;13.38;;;7.50;1.00;;;;;;5058638;28;20225;-84
2021/10/09 01:42:50;;;;;;;17.27;13.63;;;7.50;1.00;;;;;;5047938;28;20302;-84
2021/10/09 01:45:17;;;;;;;18.90;14.25;;;7.50;1.00;;;;;;5057367;28;20213;-85
2021/10/09 01:47:44;;;;;;;15.63;13.95;;;7.50;1.00;;;;;;5047099;28;20209;-86
2021/10/09 01:50:12;;;;;;;19.33;14.25;;;7.40;1.00;;;;;;5049052;28;20227;-85
2021/10/09 01:52:38;;;;;;;21.33;13.40;;;7.40;1.00;;;;;;5052917;28;20226;-85
2021/10/09 01:55:08;;;;;;;15.57;12.57;;;7.40;1.00;;;;;;5051154;28;20217;-85
2021/10/09 01:57:34;;;;;;;17.70;14.23;;;7.40;1.00;;;;;;5054356;28;20218;-85
2021/10/09 02:00:03;;;;;;;18.52;13.23;;;7.40;1.00;;;;;;5064403;28;20557;-86
2021/10/09 02:02:29;;;;;;;18.02;13.77;;;7.40;1.00;;;;;;5070269;27;20229;-84
2021/10/09 02:04:56;;;;;;;18.17;12.80;;;7.40;1.00;;;;;;5049219;28;20234;-85
2021/10/09 02:07:24;;;;;;;23.23;15.80;;;7.40;1.00;;;;;;5051479;28;20236;-84
2021/10/09 02:09:51;;;;;;;17.27;12.55;;;7.30;1.00;;;;;;5050293;28;20228;-85
2021/10/09 02:12:19;;;;;;;19.10;13.40;;;7.30;1.00;;;;;;5046820;28;20260;-85
2021/10/09 02:14:50;;;;;;;20.40;13.15;;;7.30;1.00;;;;;;5046314;28;20235;-85
2021/10/09 02:17:54;;;;;;;21.77;13.90;;;7.30;1.00;;;;;;5046992;28;20221;-84
2021/10/09 02:25:49;;;;;;;15.45;13.30;;;7.30;1.00;;;;;;5032347;28;20292;-86
2021/10/09 02:28:19;;;;;;;19.13;13.40;;;7.20;1.00;;;;;;5032540;28;20224;-85
2021/10/09 02:30:46;;;;;;;18.02;14.10;;;7.20;1.00;;;;;;5047690;28;21058;-85
2021/10/09 02:33:13;;;;;;;19.83;13.95;;;7.20;1.00;;;;;;5026949;28;20235;-85
2021/10/09 02:35:40;;;;;;;15.80;12.70;;;7.20;1.00;;;;;;5045712;28;21498;-85
2021/10/09 02:38:08;;;;;;;19.70;14.43;;;7.10;1.00;;;;;;5035206;28;20255;-85
2021/10/09 02:40:35;;;;;;;17.92;13.88;;;7.10;1.00;;;;;;5049884;28;20236;-86
2021/10/09 02:43:03;;;;;;;21.10;14.18;;;7.10;1.00;;;;;;5060042;27;20273;-84
2021/10/09 02:45:31;;;;;;;22.58;15.27;;;7.10;1.00;;;;;;5075308;28;20229;-85
2021/10/09 02:47:58;;;;;;;17.40;12.90;;;7.10;1.00;;;;;;5045632;28;20225;-86
2021/10/09 02:50:25;;;;;;;18.20;13.77;;;7.10;1.00;;;;;;5051156;28;20233;-85
2021/10/09 02:52:52;;;;;;;20.80;14.45;;;7.10;1.00;;;;;;5028673;28;20240;-84
2021/10/09 02:55:20;;;;;;;20.65;14.40;;;7.00;1.00;;;;;;5048715;28;20305;-85
2021/10/09 02:57:47;;;;;;;20.30;13.48;;;7.00;1.00;;;;;;5049865;28;20225;-85
2021/10/09 03:00:15;;;;;;;19.63;14.93;;;7.00;1.00;;;;;;5050597;28;21194;-85
2021/10/09 03:02:43;;;;;;;18.05;14.80;;;7.00;1.00;;;;;;5073617;28;20218;-83
2021/10/09 03:05:12;;;;;;;17.13;13.95;;;7.00;1.00;;;;;;5073932;28;20291;-84
2021/10/09 03:07:41;;;;;;;18.92;13.82;;;6.90;1.00;;;;;;5069969;28;20236;-84
2021/10/09 03:10:10;;;;;;;16.60;12.50;;;6.90;1.00;;;;;;5068500;28;20241;-85
2021/10/09 03:12:37;;;;;;;17.85;14.32;;;6.90;1.00;;;;;;5047320;28;20933;-86
2021/10/09 03:15:06;;;;;;;22.20;13.93;;;6.90;1.00;;;;;;5054785;28;20752;-86
2021/10/09 03:17:33;;;;;;;16.48;14.23;;;6.90;1.00;;;;;;5045423;28;21514;-86
2021/10/09 03:20:01;;;;;;;23.65;13.93;;;6.90;1.00;;;;;;5026662;28;20287;-84
2021/10/09 03:22:28;;;;;;;16.05;13.27;;;6.80;1.00;;;;;;5045978;28;20260;-85
2021/10/09 03:24:54;;;;;;;17.25;13.23;;;6.80;1.00;;;;;;5045024;28;21699;-86
2021/10/09 03:27:21;;;;;;;19.08;14.90;;;6.80;1.00;;;;;;5047746;28;20785;-86
2021/10/09 03:29:48;;;;;;;17.30;14.55;;;6.70;1.00;;;;;;5047890;28;20227;-85
2021/10/09 03:32:15;;;;;;;17.65;13.75;;;6.70;1.00;;;;;;5058352;28;20220;-85
2021/10/09 03:34:42;;;;;;;19.83;13.68;;;6.70;1.00;;;;;;5066506;28;20225;-86
2021/10/09 03:37:12;;;;;;;18.70;13.60;;;6.70;1.00;;;;;;5046144;28;20217;-85
2021/10/09 03:39:42;;;;;;;24.17;14.50;;;6.60;1.00;;;;;;5054105;28;20224;-83
2021/10/09 03:42:12;;;;;;;19.83;13.95;;;6.60;1.00;;;;;;5054079;28;20229;-84
2021/10/09 03:44:43;;;;;;;20.52;13.95;;;6.60;1.00;;;;;;5065033;28;20220;-82
2021/10/09 03:47:18;;;;;;;19.33;13.60;;;6.60;1.00;;;;;;5081563;28;20228;-82
2021/10/09 03:49:49;;;;;;;18.35;14.00;;;6.60;1.00;;;;;;5063149;28;20219;-84
2021/10/09 03:55:02;;;;;;;18.38;13.40;;;6.50;1.00;;;;;;5041709;28;20318;-82
2021/10/09 03:57:29;;;;;;;15.57;13.80;;;6.40;1.00;;;;;;5046523;28;20232;-84
2021/10/09 03:59:55;;;;;;;18.58;14.13;;;6.40;1.00;;;;;;5052932;28;20315;-84
2021/10/09 04:02:22;;;;;;;23.15;17.27;;;6.40;1.00;;;;;;5050438;28;21192;-83
2021/10/09 04:04:49;;;;;;;22.83;14.98;;;6.40;1.00;;;;;;5053740;28;20225;-83
2021/10/09 04:07:17;;;;;;;20.85;15.23;;;6.30;1.00;;;;;;5057996;28;20235;-84
2021/10/09 04:09:44;;;;;;;18.30;14.52;;;6.30;1.00;;;;;;5050458;28;20221;-84
2021/10/09 04:12:10;;;;;;;21.63;14.32;;;6.30;1.00;;;;;;5052414;28;20223;-83
2021/10/09 04:14:37;;;;;;;18.85;14.38;;;6.30;1.00;;;;;;5053291;28;20263;-82
2021/10/09 04:17:04;;;;;;;19.10;14.55;;;6.30;1.00;;;;;;5056803;28;20213;-84
2021/10/09 04:19:31;;;;;;;17.17;14.20;;;6.30;1.00;;;;;;5053847;28;20229;-84
2021/10/09 04:21:58;;;;;;;17.98;14.30;;;6.20;1.00;;;;;;5055580;28;20213;-85
2021/10/09 04:24:26;;;;;;;20.23;14.43;;;6.20;1.00;;;;;;5053263;28;20894;-84
2021/10/09 04:26:53;;;;;;;22.75;14.95;;;6.20;1.00;;;;;;5052949;28;20298;-84
2021/10/09 04:29:20;;;;;;;16.45;13.43;;;6.20;1.00;;;;;;5049837;28;20309;-83
2021/10/09 04:31:47;;;;;;;19.95;15.45;;;6.10;1.00;;;;;;5050643;28;20229;-85
2021/10/09 04:34:13;;;;;;;19.48;13.82;;;6.10;1.00;;;;;;5035836;28;20671;-84
2021/10/09 04:36:40;;;;;;;18.05;14.20;;;6.10;1.00;;;;;;5033382;28;20284;-83
2021/10/09 04:39:07;;;;;;;20.10;14.60;;;6.00;1.00;;;;;;5050020;28;20224;-83
2021/10/09 04:41:35;;;;;;;20.60;14.90;;;6.00;1.00;;;;;;5048491;28;20221;-85
2021/10/09 04:44:02;;;;;;;18.85;14.32;;;6.00;1.00;;;;;;5051280;28;20263;-84
2021/10/09 04:46:29;;;;;;;20.70;15.02;;;6.00;1.00;;;;;;5050888;28;20249;-83
2021/10/09 04:48:57;;;;;;;19.27;13.98;;;6.00;1.00;;;;;;5049664;28;21239;-83
2021/10/09 04:51:24;;;;;;;19.05;15.40;;;5.90;1.00;;;;;;5036111;28;20772;-84
2021/10/09 04:53:51;;;;;;;18.20;14.82;;;5.90;1.00;;;;;;5034539;28;20742;-84
2021/10/09 04:56:18;;;;;;;18.30;13.85;;;5.90;1.00;;;;;;5048699;28;20884;-84
2021/10/09 04:58:46;;;;;;;23.35;15.75;;;5.90;1.00;;;;;;5053313;28;20240;-85
2021/10/09 05:01:13;;;;;;;18.05;15.07;;;5.80;1.00;;;;;;5040966;28;20884;-85
2021/10/09 05:03:40;;;;;;;17.05;13.90;;;5.80;1.00;;;;;;5051799;28;20324;-84
2021/10/09 05:06:06;;;;;;;21.88;15.45;;;5.80;1.00;;;;;;5049800;28;20306;-84
2021/10/09 05:08:33;;;;;;;28.35;13.80;;;5.80;1.00;;;;;;5053815;28;24174;-85
2021/10/09 05:11:01;;;;;;;21.90;15.57;;;5.70;1.00;;;;;;5056397;28;20731;-84
2021/10/09 05:13:28;;;;;;;19.98;14.60;;;5.70;1.00;;;;;;5058268;28;20220;-83
2021/10/09 05:15:57;;;;;;;19.90;15.38;;;5.70;1.00;;;;;;5066746;28;20233;-84
2021/10/09 05:18:23;;;;;;;20.08;15.45;;;5.70;1.00;;;;;;5065629;28;20224;-85
2021/10/09 05:20:50;;;;;;;19.25;15.98;;;5.70;1.00;;;;;;5053189;28;20212;-84
2021/10/09 05:23:17;;;;;;;17.95;14.65;;;5.70;1.00;;;;;;5038569;28;20320;-84
2021/10/09 05:25:44;;;;;;;21.13;15.57;;;5.70;1.00;;;;;;5052903;28;20232;-84
2021/10/09 05:28:14;;;;;;;22.35;14.88;;;5.60;1.00;;;;;;5038099;28;20263;-85
2021/10/09 05:30:46;;;;;;;21.95;14.68;;;5.60;1.00;;;;;;5053333;28;20311;-86
2021/10/09 05:33:26;;;;;;;22.05;15.00;;;5.60;1.00;;;;;;5055522;28;20225;-84
2021/10/09 05:35:56;;;;;;;23.42;16.60;;;5.60;1.00;;;;;;5052259;28;20292;-84
2021/10/09 05:38:23;;;;;;;19.52;15.13;;;5.60;1.00;;;;;;5058497;28;20217;-84
2021/10/09 05:40:50;;;;;;;20.02;15.35;;;5.60;1.00;;;;;;5058806;28;20355;-84
2021/10/09 05:43:18;;;;;;;19.52;14.55;;;5.60;1.00;;;;;;5058723;28;20630;-84
2021/10/09 05:45:45;;;;;;;21.85;15.18;;;5.60;1.00;;;;;;5053852;28;20228;-83
2021/10/09 05:48:13;;;;;;;20.63;15.40;;;5.60;1.00;;;;;;5055955;28;20242;-83
2021/10/09 05:50:48;;;;;;;20.52;16.08;;;5.60;1.00;;;;;;5056865;28;20225;-84
2021/10/09 05:53:28;;;;;;;20.08;14.30;;;5.60;1.00;;;;;;5033841;28;20235;-85
2021/10/09 05:55:57;;;;;;;22.48;15.90;;;5.70;1.00;;;;;;5056789;28;20224;-82
2021/10/09 05:58:27;;;;;;;17.20;15.00;;;5.70;1.00;;;;;;5057843;28;20231;-83
2021/10/09 06:01:07;;;;;;;21.80;15.82;;;5.70;1.00;;;;;;5055034;28;20244;-84
2021/10/09 06:47:40;;;;;;;22.05;14.93;;;6.80;1.00;;;;;;5099890;27;20539;-84
2021/10/09 06:50:19;;;;;;;24.20;15.75;;;7.00;1.00;;;;;;5087040;27;20303;-84
2021/10/09 07:00:59;;;;;;;19.60;14.85;;;7.30;1.00;;;;;;5081025;27;20274;-82
2021/10/09 07:03:27;;;;;;;20.48;15.23;;;7.40;1.00;;;;;;5077920;28;20224;-84
2021/10/09 07:05:54;;;;;;;20.00;13.90;;;7.40;1.00;;;;;;5078693;27;20239;-82
2021/10/09 07:08:21;;;;;;;20.90;14.27;;;7.50;1.00;;;;;;5076405;27;20606;-78
2021/10/09 07:10:49;;;;;;;17.38;14.30;;;7.60;1.00;;;;;;5075276;27;20216;-78
2021/10/09 07:13:17;;;;;;;17.33;14.30;;;7.70;1.00;;;;;;5079110;28;20947;-79
2021/10/09 07:15:43;;;;;;;19.15;13.38;;;7.90;1.00;;;;;;5076644;27;20747;-78
2021/10/09 07:18:12;;;;;;;19.65;13.68;;;8.00;1.00;;;;;;5082008;27;20217;-81
2021/10/09 07:20:42;;;;;;;18.33;13.38;;;8.10;1.00;;;;;;5073888;28;22525;-79
2021/10/09 07:23:11;;;;;;;17.88;13.15;;;8.20;1.00;;;;;;5072288;27;21055;-78
2021/10/09 07:25:38;;;;;;;18.83;14.13;;;8.30;1.00;;;;;;5073740;27;20251;-80
2021/10/09 07:28:06;;;;;;;18.85;12.60;;;8.40;1.00;;;;;;5073983;27;20225;-78
2021/10/09 07:30:32;;;;;;;25.08;15.52;;;8.40;1.00;;;;;;5072934;27;20694;-78
2021/10/09 07:32:59;;;;;;;13.90;12.40;;;8.50;1.00;;;;;;5072728;27;21365;-78
2021/10/09 07:35:26;;;;;;;16.98;12.57;;;8.50;1.00;;;;;;5077376;28;20744;-80
2021/10/09 07:37:55;;;;;;;18.48;13.27;;;8.60;1.00;;;;;;5077488;27;20225;-81
2021/10/09 07:40:22;;;;;;;16.67;12.98;;;8.80;1.00;;;;;;5074457;27;20250;-79
2021/10/09 07:42:49;;;;;;;23.70;13.55;;;8.90;1.00;;;;;;5074776;27;20224;-77
2021/10/09 07:45:15;;;;;;;20.90;13.68;;;9.00;1.00;;;;;;5070957;27;20232;-77
2021/10/09 07:47:42;;;;;;;19.25;13.40;;;9.10;1.00;;;;;;5069251;27;20248;-76
2021/10/09 07:50:10;;;;;;;16.13;12.55;;;9.20;1.00;;;;;;5070431;27;21413;-77
2021/10/09 07:52:36;;;;;;;19.23;13.10;;;9.30;1.00;;;;;;5073770;27;20242;-77
2021/10/09 07:55:05;;;;;;;18.45;12.38;;;9.50;1.00;;;;;;5072134;27;21688;-77
2021/10/09 07:57:32;;;;;;;17.52;12.90;;;9.60;1.00;;;;;;5075985;28;20721;-79
2021/10/09 07:59:59;;;;;;;15.00;11.73;;;9.70;1.00;;;;;;5072462;28;21122;-77
2021/10/09 08:02:26;;;;;;;17.90;12.10;;;9.80;1.00;;;;;;5074526;28;20439;-78
2021/10/09 08:04:53;;;;;;;18.57;12.10;;;9.90;1.00;;;;;;5072587;28;20467;-79
2021/10/09 08:07:21;;;;;;;19.70;11.87;;;10.10;1.00;;;;;;5071710;28;20490;-79
2021/10/09 08:09:47;;;;;;;15.83;11.43;;;10.20;1.00;;;;;;5071411;28;20450;-78
2021/10/09 08:12:15;;;;;;;12.10;10.80;;;10.40;1.00;;;;;;5071459;28;20459;-78
2021/10/09 08:14:42;;;;;;;13.47;10.80;;;10.50;1.00;;;;;;5071217;28;20435;-78
2021/10/09 08:17:08;;;;;;;12.93;11.00;;;10.60;1.00;;;;;;5067941;28;20442;-78
2021/10/09 08:19:35;;;;;;;14.63;11.93;;;10.80;1.00;;;;;;5061882;28;20577;-78
2021/10/09 08:22:06;;;;;;;13.73;11.50;;;10.90;1.00;;;;;;5057909;28;20474;-79
2021/10/09 08:24:36;;;;;;;16.57;11.73;;;11.00;1.00;;;;;;5064640;28;20451;-78
2021/10/09 08:27:23;;;;;;;11.70;9.80;;;11.10;1.00;;;;;;5058554;28;20705;-78
2021/10/09 08:35:33;;;;;;;18.20;11.40;;;12.80;1.00;;;;;;5065474;28;20456;-77
2021/10/09 08:40:44;;;;;;;11.73;9.70;;;14.40;1.00;;;;;;5067171;28;20660;-78
2021/10/09 08:43:11;;;;;;;14.77;10.13;;;14.30;1.00;;;;;;5061629;28;20435;-79
2021/10/09 08:45:39;;;;;;;12.73;10.63;;;14.20;1.00;;;;;;5063449;28;20452;-78
2021/10/09 08:48:06;;;;;;;10.83;9.43;;;14.90;1.00;;;;;;5062466;28;20478;-79
2021/10/09 08:50:32;;;;;;;9.87;8.87;;;16.30;1.00;;;;;;5062248;28;20593;-78
2021/10/09 08:53:03;;;;;;;13.07;8.80;;;17.50;1.00;;;;;;5053518;28;20473;-79
2021/10/09 08:55:34;;;;;;;15.33;9.80;;;18.40;1.00;;;;;;5059758;28;21001;-77
2021/10/09 08:58:04;;;;;;;14.30;9.53;;;19.30;1.00;;;;;;5058161;28;20560;-77
2021/10/09 09:00:49;;;;;;;14.40;9.97;;;19.90;1.00;;;;;;5065856;28;20444;-77
2021/10/09 09:03:19;;;;;;;12.17;7.80;;;20.40;1.00;;;;;;5059651;28;20461;-78
2021/10/09 09:06:00;;;;;;;9.80;7.50;;;21.20;1.00;;;;;;5058349;28;20467;-78
2021/10/09 09:08:46;;;;;;;10.90;8.50;;;21.90;1.00;;;;;;5056612;28;20466;-77
2021/10/09 09:25:59;;;;;;;7.40;6.70;;;22.40;1.00;;;;;;5057400;28;20501;-77
2021/10/09 09:34:11;;;;;;;11.40;7.33;;;19.10;1.00;;;;;;5054494;28;20499;-77
2021/10/09 09:39:38;;;;;;;10.37;6.90;;;17.30;1.00;;;;;;5015670;28;20494;-78
2021/10/09 09:42:05;;;;;;;11.23;7.77;;;16.60;1.00;;;;;;5055005;28;20606;-77
2021/10/09 09:44:31;;;;;;;10.30;7.30;;;16.30;1.00;;;;;;5056904;28;20480;-78
2021/10/09 09:47:02;;;;;;;10.70;7.43;;;15.90;1.00;;;;;;5061413;28;20492;-78
2021/10/09 09:49:31;;;;;;;9.70;7.00;;;15.60;1.00;;;;;;5059876;28;20464;-78
2021/10/09 09:51:58;;;;;;;10.20;6.57;;;15.40;1.00;;;;;;5056461;28;20468;-78
2021/10/09 09:54:27;;;;;;;11.73;7.10;;;15.20;1.00;;;;;;5056583;28;20445;-77
2021/10/09 09:56:57;;;;;;;8.87;6.80;;;15.10;1.00;;;;;;5058488;28;20464;-78
2021/10/09 09:59:29;;;;;;;8.17;6.83;;;15.20;1.00;;;;;;5061522;28;20460;-78
2021/10/09 10:01:56;;;;;;;7.43;6.73;;;15.80;1.00;;;;;;5067086;28;21475;-77
2021/10/09 10:04:24;;;;;;;8.83;6.60;;;16.50;1.00;;;;;;5066795;28;20444;-77
2021/10/09 10:06:52;;;;;;;8.17;7.33;;;16.70;1.00;;;;;;5064943;28;20447;-77
2021/10/09 10:09:19;;;;;;;7.40;6.70;;;17.80;1.00;;;;;;5063946;28;20477;-78
2021/10/09 10:11:46;;;;;;;7.33;6.33;;;18.70;1.00;;;;;;5059471;28;20562;-77
2021/10/09 10:14:13;;;;;;;11.40;7.03;;;18.30;1.00;;;;;;5058619;28;21192;-77
2021/10/09 10:16:46;;;;;;;8.00;5.83;;;17.80;1.00;;;;;;5053795;28;20516;-77
2021/10/09 10:19:12;;;;;;;9.80;7.40;;;17.50;1.00;;;;;;5057741;28;20443;-77
2021/10/09 10:21:50;;;;;;;9.87;7.47;;;17.60;1.00;;;;;;5056713;28;20458;-76
2021/10/09 10:24:48;;;;;;;7.47;6.07;;;18.60;1.00;;;;;;5054005;28;20531;-77
2021/10/09 10:27:32;;;;;;;8.20;6.10;;;20.90;1.00;;;;;;5042992;28;20484;-78
2021/10/09 10:30:25;;;;;;;8.00;6.60;;;22.60;1.00;;;;;;5055786;28;20469;-77
2021/10/09 10:33:38;;;;;;;7.43;6.13;;;21.50;1.00;;;;;;5054627;28;20926;-77
2021/10/09 10:36:05;;;;;;;8.20;7.07;;;19.90;1.00;;;;;;5061738;28;20495;-77
2021/10/09 10:38:45;;;;;;;9.37;6.97;;;18.90;1.00;;;;;;5051679;28;20470;-77
2021/10/09 10:41:17;;;;;;;7.60;6.87;;;18.00;1.00;;;;;;5050408;28;20455;-76
2021/10/09 10:43:46;;;;;;;9.30;6.40;;;17.50;1.00;;;;;;5048742;28;21815;-76
2021/10/09 10:46:38;;;;;;;8.30;6.30;;;17.40;1.00;;;;;;5050739;28;20458;-78
2021/10/09 10:49:09;;;;;;;8.90;6.10;;;17.90;1.00;;;;;;5055188;28;21068;-76
2021/10/09 10:51:42;;;;;;;8.43;7.10;;;17.90;1.00;;;;;;5067335;28;20458;-78
2021/10/09 10:54:14;;;;;;;7.30;6.00;;;18.10;1.00;;;;;;5052772;28;20459;-79
2021/10/09 10:57:23;;;;;;;7.80;6.53;;;19.60;1.00;;;;;;5059481;28;20456;-78
2021/10/09 10:59:56;;;;;;;10.50;7.17;;;21.10;1.00;;;;;;5048745;28;20475;-78
2021/10/09 11:02:25;;;;;;;9.57;7.00;;;21.30;1.00;;;;;;5050497;27;20956;-78
2021/10/09 11:04:53;;;;;;;8.43;6.20;;;21.30;1.00;;;;;;5052116;28;20461;-79
2021/10/09 11:07:24;;;;;;;7.03;6.20;;;21.20;1.00;;;;;;5056035;28;20454;-78
2021/10/09 11:09:51;;;;;;;6.57;5.53;;;21.90;1.00;;;;;;5049833;28;20950;-78
2021/10/09 11:12:25;;;;;;;6.40;5.17;;;23.30;1.00;;;;;;5042044;28;20568;-78
2021/10/09 11:14:52;;;;;;;5.80;5.23;;;24.50;1.00;;;;;;5048149;28;20470;-78
2021/10/09 11:17:19;;;;;;;6.73;5.07;;;25.80;1.00;;;;;;5047902;28;20893;-78
2021/10/09 11:19:47;;;;;;;7.73;5.10;;;26.20;1.00;;;;;;5053724;28;20475;-81
2021/10/09 11:22:16;;;;;;;5.43;4.50;;;26.60;1.00;;;;;;5054703;28;20452;-79
2021/10/09 11:24:45;;;;;;;6.27;5.00;;;27.50;1.00;;;;;;5053243;28;20951;-79
2021/10/09 11:27:12;;;;;;;5.30;4.80;;;28.60;1.00;;;;;;5045237;28;21295;-78
2021/10/09 11:29:41;;;;;;;5.40;4.90;;;29.20;1.00;;;;;;5048879;28;20452;-79
2021/10/09 11:32:09;;;;;;;7.97;7.20;;;29.20;1.00;;;;;;5050111;28;20601;-78
2021/10/09 11:34:50;;;;;;;4.70;4.17;;;28.50;1.00;;;;;;5049381;28;20453;-78
2021/10/09 11:37:17;;;;;;;8.57;4.20;;;26.40;1.00;;;;;;5060257;28;20441;-78
2021/10/09 11:39:48;;;;;;;5.70;5.20;;;25.10;1.00;;;;;;5054469;28;20455;-78
2021/10/09 11:42:17;;;;;;;5.37;4.43;;;24.90;1.00;;;;;;5059703;28;20551;-78
2021/10/09 11:45:00;;;;;;;6.17;5.57;;;25.60;1.00;;;;;;5064745;28;20557;-78
2021/10/09 11:53:28;;;;;;;4.90;4.43;;;26.20;1.00;;;;;;5063838;28;20558;-78
2021/10/09 11:53:39;;;;;;;8.50;5.73;;;26.20;1.00;;;;;;5036448;28;20475;-78
2021/10/09 11:56:07;;;;;;;6.80;5.00;;;27.00;1.00;;;;;;5062204;28;20459;-77
2021/10/09 11:58:45;;;;;;;7.10;4.97;;;27.90;1.00;;;;;;5070548;28;20546;-77
2021/10/09 12:01:29;;;;;;;6.57;6.03;;;28.40;1.00;;;;;;5060803;28;20418;-77
2021/10/09 12:03:56;;;;;;;6.57;4.97;;;28.30;1.00;;;;;;5062245;28;21165;-79
2021/10/09 12:06:23;;;;;;;5.53;5.00;;;28.40;1.00;;;;;;5063022;28;20465;-78
2021/10/09 12:08:51;;;;;;;5.93;5.30;;;27.60;1.00;;;;;;5067472;28;20473;-78
2021/10/09 12:11:26;;;;;;;6.87;4.73;;;27.20;1.00;;;;;;5061980;28;20445;-78
2021/10/09 12:13:55;;;;;;;6.03;5.27;;;25.90;1.00;;;;;;5066326;28;20546;-78
2021/10/09 12:16:27;;;;;;;6.97;4.80;;;25.20;1.00;;;;;;5061048;28;20467;-78
2021/10/09 12:18:56;;;;;;;5.50;4.80;;;25.30;1.00;;;;;;5061254;28;20560;-78
2021/10/09 12:21:24;;;;;;;4.77;4.37;;;25.90;1.00;;;;;;5060466;28;20555;-78
2021/10/09 12:23:53;;;;;;;6.57;5.10;;;26.70;1.00;;;;;;5058884;28;20466;-78
2021/10/09 12:26:21;;;;;;;6.53;4.97;;;26.60;1.00;;;;;;5066997;28;22163;-77
2021/10/09 12:29:08;;;;;;;5.47;4.97;;;26.00;1.00;;;;;;5057039;28;20546;-78
2021/10/09 12:31:38;;;;;;;5.97;5.37;;;25.80;1.00;;;;;;5062000;28;20466;-78
2021/10/09 12:34:24;;;;;;;5.03;4.40;;;25.50;1.00;;;;;;5057364;28;20454;-78
2021/10/09 12:37:10;;;;;;;5.30;4.63;;;24.70;1.00;;;;;;5058006;28;20474;-76
2021/10/09 12:39:36;;;;;;;6.17;5.57;;;23.20;1.00;;;;;;5055174;28;21303;-76
2021/10/09 12:42:03;;;;;;;7.53;5.00;;;21.80;1.00;;;;;;5063562;28;20528;-76
2021/10/09 12:44:30;;;;;;;5.80;5.00;;;20.50;1.00;;;;;;5064657;28;20465;-76
2021/10/09 12:46:59;;;;;;;6.17;5.10;;;19.60;1.00;;;;;;5067403;28;20912;-76
2021/10/09 12:49:26;;;;;;;8.63;5.83;;;19.30;1.00;;;;;;5070688;28;20512;-76
2021/10/09 12:51:52;;;;;;;5.60;5.10;;;18.70;1.00;;;;;;5052201;28;20458;-76
2021/10/09 12:54:19;;;;;;;6.00;5.20;;;18.50;1.00;;;;;;5065991;28;20439;-77
2021/10/09 12:56:48;;;;;;;7.13;5.20;;;18.50;1.00;;;;;;5059278;28;20459;-76
2021/10/09 12:59:17;;;;;;;6.77;4.17;;;18.40;1.00;;;;;;5062687;28;20538;-76
2021/10/09 13:01:43;;;;;;;7.20;4.80;;;17.90;1.00;;;;;;5058193;28;20447;-76
2021/10/09 13:04:11;;;;;;;6.47;4.50;;;17.50;1.00;;;;;;5057688;28;20455;-76
2021/10/09 13:06:38;;;;;;;5.90;5.40;;;17.30;1.00;;;;;;5051938;28;21217;-76
2021/10/09 13:09:05;;;;;;;5.00;4.33;;;17.30;1.00;;;;;;5052967;28;20470;-77
2021/10/09 13:11:37;;;;;;;7.37;4.23;;;17.40;1.00;;;;;;5057673;28;20470;-76
2021/10/09 13:14:04;;;;;;;8.03;5.70;;;17.50;1.00;;;;;;5054467;28;21264;-76
2021/10/09 13:16:30;;;;;;;6.97;4.80;;;18.10;1.00;;;;;;5050099;28;20474;-77
2021/10/09 13:18:58;;;;;;;5.23;4.60;;;18.00;1.00;;;;;;5048075;28;20463;-78
2021/10/09 13:21:26;;;;;;;6.30;4.97;;;17.90;1.00;;;;;;5058534;28;20475;-77
2021/10/09 13:23:53;;;;;;;7.30;5.50;;;17.70;1.00;;;;;;5056857;28;20465;-77
2021/10/09 13:26:19;;;;;;;6.33;3.70;;;17.50;1.00;;;;;;5052915;28;20478;-77
2021/10/09 13:28:46;;;;;;;7.30;4.40;;;17.30;1.00;;;;;;5054469;28;20443;-76
2021/10/09 13:31:13;;;;;;;6.30;4.33;;;17.20;1.00;;;;;;5052811;28;20465;-78
2021/10/09 13:33:39;;;;;;;6.90;4.27;;;17.10;1.00;;;;;;5050245;28;20457;-78
2021/10/09 13:36:07;;;;;;;5.50;4.60;;;17.00;1.00;;;;;;5057038;28;20565;-77
2021/10/09 13:38:35;;;;;;;4.93;3.90;;;16.90;1.00;;;;;;5054746;28;20443;-77
2021/10/09 13:41:02;;;;;;;12.10;4.30;;;17.00;1.00;;;;;;5059909;28;20462;-78
2021/10/09 13:43:29;;;;;;;5.43;3.80;;;17.00;1.00;;;;;;5054329;28;20465;-78
2021/10/09 13:45:55;;;;;;;8.47;4.70;;;16.90;1.00;;;;;;5057617;28;20478;-78
2021/10/09 13:48:22;;;;;;;7.03;4.60;;;16.80;1.00;;;;;;5055233;28;21115;-79
2021/10/09 13:50:50;;;;;;;4.93;4.20;;;16.80;1.00;;;;;;5054353;28;20478;-76
2021/10/09 13:53:16;;;;;;;5.87;4.47;;;16.70;1.00;;;;;;5062522;28;20513;-79
2021/10/09 13:55:45;;;;;;;5.87;4.80;;;16.70;1.00;;;;;;5059575;28;20498;-78
2021/10/09 13:58:12;;;;;;;5.33;4.80;;;16.70;1.00;;;;;;5053460;28;20431;-77
2021/10/09 14:00:40;;;;;;;7.40;5.60;;;16.70;1.00;;;;;;5058475;28;21404;-77
2021/10/09 14:03:07;;;;;;;7.63;4.17;;;16.70;1.00;;;;;;5051107;28;24929;-78
2021/10/09 14:05:34;;;;;;;7.33;5.30;;;16.80;1.00;;;;;;5060002;28;20465;-78
2021/10/09 14:08:01;;;;;;;7.37;4.33;;;16.70;1.00;;;;;;5057590;28;20538;-78
2021/10/09 14:10:28;;;;;;;6.47;5.07;;;16.80;1.00;;;;;;5062459;28;20434;-77
2021/10/09 14:12:57;;;;;;;8.17;5.13;;;16.80;1.00;;;;;;5058076;28;20469;-76
2021/10/09 14:15:24;;;;;;;4.93;3.90;;;16.70;1.00;;;;;;5061544;28;20501;-77
2021/10/09 14:17:51;;;;;;;7.93;4.83;;;16.50;1.00;;;;;;5059808;28;20450;-76
2021/10/09 14:20:18;;;;;;;5.50;4.70;;;16.50;1.00;;;;;;5058404;28;21364;-76
2021/10/09 14:22:45;;;;;;;5.90;4.50;;;16.40;1.00;;;;;;5061775;28;20645;-78
2021/10/09 14:25:14;;;;;;;6.00;4.67;;;16.40;1.00;;;;;;5056475;28;20442;-78
2021/10/09 14:27:41;;;;;;;6.00;5.00;;;16.30;1.00;;;;;;5067539;28;21289;-78
2021/10/09 14:30:11;;;;;;;7.07;4.50;;;16.20;1.00;;;;;;5062728;28;20441;-78
2021/10/09 14:32:40;;;;;;;5.00;4.50;;;16.10;1.00;;;;;;5062228;28;20587;-77
2021/10/09 14:35:07;;;;;;;8.57;4.30;;;16.00;1.00;;;;;;5060483;28;20429;-77
2021/10/09 14:37:35;;;;;;;7.80;5.23;;;16.00;1.00;;;;;;5067674;28;20453;-78